This is the latest recevied weather packets stored in our database for station/object W4JCW. If no packets are shown the sender has not sent any weather packets the latest 1 day(s).
| Time | Temp. | Humidity | Pressure | Rain* | Wind** | Luminosity | Snow |
|---|---|---|---|---|---|---|---|
| 1778075198 | 20° C | 76% | 1014 hPa | 0 mm | - | 161 W/m² | - |
| 1778074288 | 19.44° C | 79% | 1014.1 hPa | 0 mm | - | 173 W/m² | - |
| 1778073380 | 18.33° C | 80% | 1013.8 hPa | 0 mm | - | 142 W/m² | - |
| 1778073076 | 18.33° C | 82% | 1014.2 hPa | 0 mm | - | 159 W/m² | - |
| 1778072773 | 18.33° C | 82% | 1014.3 hPa | 0 mm | - | 124 W/m² | - |
| 1778071866 | 17.22° C | 85% | 1014.3 hPa | 0 mm | - | 119 W/m² | - |
| 1778068840 | 16.11° C | 88% | 1013.7 hPa | 0 mm | - | 46 W/m² | - |
| 1778068538 | 15.56° C | 89% | 1013.7 hPa | 0 mm | - | 57 W/m² | - |
| 1778068236 | 15.56° C | 89% | 1013.6 hPa | 0 mm | - | 59 W/m² | - |
| 1778067933 | 15.56° C | 90% | 1013.7 hPa | 0 mm | - | 75 W/m² | - |
| 1778067329 | 15° C | 90% | 1013.6 hPa | 0 mm | - | 40 W/m² | - |
| 1778066420 | 15° C | 92% | 1013 hPa | 0 mm | - | 30 W/m² | - |
| 1778065815 | 14.44° C | 92% | 1013.1 hPa | 0 mm | - | 25 W/m² | - |
| 1778064301 | 14.44° C | 91% | 1013 hPa | 0 mm | - | 10 W/m² | - |
| 1778063999 | 14.44° C | 91% | 1013.1 hPa | 0 mm | - | 7 W/m² | - |
| 1778063392 | 14.44° C | 91% | 1012.8 hPa | 0 mm | - | 3 W/m² | - |
| 1778062484 | 14.44° C | 91% | 1013.1 hPa | 0 mm | - | 0 W/m² | - |
| 1778061577 | 14.44° C | 90% | 1012.8 hPa | 0 mm | - | 0 W/m² | - |
| 1778060670 | 14.44° C | 89% | 1013.1 hPa | 0 mm | - | 0 W/m² | - |
| 1778060065 | 14.44° C | 89% | 1013.1 hPa | 0 mm | - | 0 W/m² | - |
| 1778059763 | 14.44° C | 88% | 1012.9 hPa | 0 mm | - | 0 W/m² | - |
| 1778058855 | 15° C | 88% | 1013.1 hPa | 0 mm | - | 0 W/m² | - |
| 1778058552 | 15° C | 88% | 1013.1 hPa | 0 mm | - | 0 W/m² | - |
| 1778057946 | 15° C | 87% | 1013.3 hPa | 0 mm | - | 0 W/m² | - |
| 1778057339 | 15° C | 86% | 1013.7 hPa | 0 mm | - | 0 W/m² | - |
* Rain latest hour (hover to see other rain measurements)
** Current wind speed in m/s (hover to see current wind gust speed)